sensor_id;sensor_type;location;lat;lon;timestamp;P1;durP1;ratioP1;P2;durP2;ratioP2
769;SDS011;368;48.698;9.116;2024-02-23T00:00:13;1.03;;;0.20;;
769;SDS011;368;48.698;9.116;2024-02-23T00:02:41;0.40;;;0.20;;
769;SDS011;368;48.698;9.116;2024-02-23T00:05:08;0.40;;;0.23;;
769;SDS011;368;48.698;9.116;2024-02-23T00:07:35;0.40;;;0.20;;
769;SDS011;368;48.698;9.116;2024-02-23T00:10:02;0.47;;;0.20;;
769;SDS011;368;48.698;9.116;2024-02-23T00:12:31;0.63;;;0.30;;
769;SDS011;368;48.698;9.116;2024-02-23T00:14:57;0.40;;;0.20;;
769;SDS011;368;48.698;9.116;2024-02-23T00:17:24;0.47;;;0.30;;
769;SDS011;368;48.698;9.116;2024-02-23T00:19:51;2.63;;;0.30;;
769;SDS011;368;48.698;9.116;2024-02-23T00:22:18;0.30;;;0.20;;
769;SDS011;368;48.698;9.116;2024-02-23T00:24:45;0.40;;;0.30;;
769;SDS011;368;48.698;9.116;2024-02-23T00:27:12;0.40;;;0.20;;
769;SDS011;368;48.698;9.116;2024-02-23T00:29:40;0.60;;;0.30;;
769;SDS011;368;48.698;9.116;2024-02-23T00:32:06;0.30;;;0.20;;
769;SDS011;368;48.698;9.116;2024-02-23T00:34:33;0.40;;;0.20;;
769;SDS011;368;48.698;9.116;2024-02-23T00:37:00;0.30;;;0.20;;
769;SDS011;368;48.698;9.116;2024-02-23T00:39:28;0.90;;;0.30;;
769;SDS011;368;48.698;9.116;2024-02-23T00:41:56;4.47;;;0.50;;
769;SDS011;368;48.698;9.116;2024-02-23T00:44:23;0.50;;;0.30;;
769;SDS011;368;48.698;9.116;2024-02-23T00:46:51;0.30;;;0.20;;
769;SDS011;368;48.698;9.116;2024-02-23T00:49:18;0.40;;;0.27;;
769;SDS011;368;48.698;9.116;2024-02-23T00:51:44;0.40;;;0.20;;
769;SDS011;368;48.698;9.116;2024-02-23T00:54:11;1.07;;;0.30;;
769;SDS011;368;48.698;9.116;2024-02-23T00:56:38;0.50;;;0.47;;
769;SDS011;368;48.698;9.116;2024-02-23T00:59:05;1.30;;;0.53;;
769;SDS011;368;48.698;9.116;2024-02-23T01:01:31;0.50;;;0.40;;
769;SDS011;368;48.698;9.116;2024-02-23T01:03:59;4.87;;;0.63;;
769;SDS011;368;48.698;9.116;2024-02-23T01:06:26;1.23;;;0.40;;
769;SDS011;368;48.698;9.116;2024-02-23T01:08:53;0.60;;;0.40;;
769;SDS011;368;48.698;9.116;2024-02-23T01:11:20;0.97;;;0.50;;
769;SDS011;368;48.698;9.116;2024-02-23T01:13:47;4.37;;;0.50;;
769;SDS011;368;48.698;9.116;2024-02-23T01:16:13;0.80;;;0.60;;
769;SDS011;368;48.698;9.116;2024-02-23T01:18:40;3.60;;;0.87;;
769;SDS011;368;48.698;9.116;2024-02-23T01:21:09;4.40;;;0.60;;
769;SDS011;368;48.698;9.116;2024-02-23T01:23:36;2.40;;;0.53;;
769;SDS011;368;48.698;9.116;2024-02-23T01:26:02;0.60;;;0.50;;
769;SDS011;368;48.698;9.116;2024-02-23T01:28:29;1.40;;;0.63;;
769;SDS011;368;48.698;9.116;2024-02-23T01:30:56;2.60;;;0.70;;
769;SDS011;368;48.698;9.116;2024-02-23T01:33:23;2.00;;;0.70;;
769;SDS011;368;48.698;9.116;2024-02-23T01:35:49;1.60;;;0.47;;
769;SDS011;368;48.698;9.116;2024-02-23T01:38:18;1.37;;;0.30;;
769;SDS011;368;48.698;9.116;2024-02-23T01:40:46;1.47;;;0.60;;
769;SDS011;368;48.698;9.116;2024-02-23T01:43:12;2.33;;;0.47;;
769;SDS011;368;48.698;9.116;2024-02-23T01:45:39;0.63;;;0.50;;
769;SDS011;368;48.698;9.116;2024-02-23T01:48:06;1.63;;;0.50;;
769;SDS011;368;48.698;9.116;2024-02-23T01:50:33;1.83;;;0.50;;
769;SDS011;368;48.698;9.116;2024-02-23T01:53:01;0.87;;;0.50;;
769;SDS011;368;48.698;9.116;2024-02-23T01:55:30;1.60;;;0.87;;
769;SDS011;368;48.698;9.116;2024-02-23T01:57:58;2.00;;;0.70;;
769;SDS011;368;48.698;9.116;2024-02-23T02:00:25;1.07;;;0.63;;
769;SDS011;368;48.698;9.116;2024-02-23T02:02:52;1.53;;;0.43;;
769;SDS011;368;48.698;9.116;2024-02-23T02:05:19;3.47;;;1.00;;
769;SDS011;368;48.698;9.116;2024-02-23T02:07:47;1.13;;;0.70;;
769;SDS011;368;48.698;9.116;2024-02-23T02:10:15;1.63;;;0.93;;
769;SDS011;368;48.698;9.116;2024-02-23T02:12:44;1.37;;;0.60;;
769;SDS011;368;48.698;9.116;2024-02-23T02:15:11;1.77;;;1.47;;
769;SDS011;368;48.698;9.116;2024-02-23T02:17:38;4.33;;;0.93;;
769;SDS011;368;48.698;9.116;2024-02-23T02:20:05;3.10;;;0.67;;
769;SDS011;368;48.698;9.116;2024-02-23T02:22:37;2.10;;;0.67;;
769;SDS011;368;48.698;9.116;2024-02-23T02:25:04;2.00;;;0.53;;
769;SDS011;368;48.698;9.116;2024-02-23T02:27:31;0.60;;;0.43;;
769;SDS011;368;48.698;9.116;2024-02-23T02:30:00;0.77;;;0.40;;
769;SDS011;368;48.698;9.116;2024-02-23T02:32:26;2.93;;;0.80;;
769;SDS011;368;48.698;9.116;2024-02-23T02:34:53;1.73;;;0.60;;
769;SDS011;368;48.698;9.116;2024-02-23T02:37:20;0.70;;;0.60;;
769;SDS011;368;48.698;9.116;2024-02-23T02:39:47;5.77;;;1.53;;
769;SDS011;368;48.698;9.116;2024-02-23T02:42:14;0.90;;;0.60;;
769;SDS011;368;48.698;9.116;2024-02-23T02:44:41;0.70;;;0.50;;
769;SDS011;368;48.698;9.116;2024-02-23T02:47:09;1.77;;;0.43;;
769;SDS011;368;48.698;9.116;2024-02-23T02:49:36;5.20;;;0.90;;
769;SDS011;368;48.698;9.116;2024-02-23T02:52:03;0.87;;;0.40;;
769;SDS011;368;48.698;9.116;2024-02-23T02:54:29;1.60;;;0.40;;
769;SDS011;368;48.698;9.116;2024-02-23T02:56:56;1.67;;;0.40;;
769;SDS011;368;48.698;9.116;2024-02-23T02:59:23;0.70;;;0.50;;
769;SDS011;368;48.698;9.116;2024-02-23T03:01:50;2.33;;;0.43;;
769;SDS011;368;48.698;9.116;2024-02-23T03:04:18;0.67;;;0.50;;
769;SDS011;368;48.698;9.116;2024-02-23T03:06:45;1.80;;;0.40;;
769;SDS011;368;48.698;9.116;2024-02-23T03:09:11;0.60;;;0.40;;
769;SDS011;368;48.698;9.116;2024-02-23T03:11:38;2.43;;;0.60;;
769;SDS011;368;48.698;9.116;2024-02-23T03:14:05;2.73;;;0.50;;
769;SDS011;368;48.698;9.116;2024-02-23T03:16:32;1.23;;;0.60;;
769;SDS011;368;48.698;9.116;2024-02-23T03:18:59;1.60;;;0.50;;
769;SDS011;368;48.698;9.116;2024-02-23T03:21:27;3.03;;;0.50;;
769;SDS011;368;48.698;9.116;2024-02-23T03:23:54;0.70;;;0.37;;
769;SDS011;368;48.698;9.116;2024-02-23T03:26:21;2.20;;;0.60;;
769;SDS011;368;48.698;9.116;2024-02-23T03:28:47;1.27;;;0.50;;
769;SDS011;368;48.698;9.116;2024-02-23T03:31:14;2.30;;;0.83;;
769;SDS011;368;48.698;9.116;2024-02-23T03:33:41;0.50;;;0.40;;
769;SDS011;368;48.698;9.116;2024-02-23T03:36:08;0.77;;;0.50;;
769;SDS011;368;48.698;9.116;2024-02-23T03:38:36;0.80;;;0.40;;
769;SDS011;368;48.698;9.116;2024-02-23T03:41:03;0.60;;;0.43;;
769;SDS011;368;48.698;9.116;2024-02-23T03:43:31;1.63;;;0.50;;
769;SDS011;368;48.698;9.116;2024-02-23T03:45:58;1.17;;;0.60;;
769;SDS011;368;48.698;9.116;2024-02-23T03:48:25;1.90;;;0.40;;
769;SDS011;368;48.698;9.116;2024-02-23T03:50:52;0.70;;;0.60;;
769;SDS011;368;48.698;9.116;2024-02-23T03:53:19;0.50;;;0.30;;
769;SDS011;368;48.698;9.116;2024-02-23T03:55:47;0.77;;;0.40;;
769;SDS011;368;48.698;9.116;2024-02-23T03:58:14;1.13;;;0.60;;
769;SDS011;368;48.698;9.116;2024-02-23T04:00:41;1.07;;;0.70;;
769;SDS011;368;48.698;9.116;2024-02-23T04:03:09;0.73;;;0.50;;
769;SDS011;368;48.698;9.116;2024-02-23T04:05:36;2.43;;;0.60;;
769;SDS011;368;48.698;9.116;2024-02-23T04:08:03;1.90;;;0.60;;
769;SDS011;368;48.698;9.116;2024-02-23T04:10:30;0.50;;;0.30;;
769;SDS011;368;48.698;9.116;2024-02-23T04:12:58;0.53;;;0.40;;
769;SDS011;368;48.698;9.116;2024-02-23T04:15:26;0.40;;;0.40;;
769;SDS011;368;48.698;9.116;2024-02-23T04:17:52;1.83;;;0.90;;
769;SDS011;368;48.698;9.116;2024-02-23T04:20:19;3.70;;;0.93;;
769;SDS011;368;48.698;9.116;2024-02-23T04:22:46;3.03;;;1.10;;
769;SDS011;368;48.698;9.116;2024-02-23T04:25:13;1.70;;;0.80;;
769;SDS011;368;48.698;9.116;2024-02-23T04:27:40;2.00;;;0.70;;
769;SDS011;368;48.698;9.116;2024-02-23T04:30:08;2.03;;;0.60;;
769;SDS011;368;48.698;9.116;2024-02-23T04:32:37;1.37;;;0.70;;
769;SDS011;368;48.698;9.116;2024-02-23T04:35:05;1.93;;;0.73;;
769;SDS011;368;48.698;9.116;2024-02-23T04:37:32;1.43;;;1.00;;
769;SDS011;368;48.698;9.116;2024-02-23T04:39:59;4.87;;;0.80;;
769;SDS011;368;48.698;9.116;2024-02-23T04:42:26;0.90;;;0.50;;
769;SDS011;368;48.698;9.116;2024-02-23T04:44:53;1.27;;;0.70;;
769;SDS011;368;48.698;9.116;2024-02-23T04:47:21;0.80;;;0.50;;
769;SDS011;368;48.698;9.116;2024-02-23T04:49:48;3.90;;;1.07;;
769;SDS011;368;48.698;9.116;2024-02-23T04:52:15;2.20;;;0.70;;
769;SDS011;368;48.698;9.116;2024-02-23T04:54:42;1.93;;;0.57;;
769;SDS011;368;48.698;9.116;2024-02-23T04:57:09;1.83;;;1.03;;
769;SDS011;368;48.698;9.116;2024-02-23T04:59:36;2.37;;;1.20;;
769;SDS011;368;48.698;9.116;2024-02-23T05:02:02;2.40;;;2.00;;
769;SDS011;368;48.698;9.116;2024-02-23T05:04:31;1.90;;;0.70;;
769;SDS011;368;48.698;9.116;2024-02-23T05:06:58;0.80;;;0.60;;
769;SDS011;368;48.698;9.116;2024-02-23T05:09:25;1.10;;;0.90;;
769;SDS011;368;48.698;9.116;2024-02-23T05:11:51;0.70;;;0.50;;
769;SDS011;368;48.698;9.116;2024-02-23T05:14:18;1.87;;;0.80;;
769;SDS011;368;48.698;9.116;2024-02-23T05:16:45;1.27;;;0.80;;
769;SDS011;368;48.698;9.116;2024-02-23T05:19:12;3.17;;;0.60;;
769;SDS011;368;48.698;9.116;2024-02-23T05:21:40;2.57;;;0.70;;
769;SDS011;368;48.698;9.116;2024-02-23T05:24:06;3.20;;;0.90;;
769;SDS011;368;48.698;9.116;2024-02-23T05:26:33;2.43;;;0.70;;
769;SDS011;368;48.698;9.116;2024-02-23T05:29:00;2.60;;;0.60;;
769;SDS011;368;48.698;9.116;2024-02-23T05:31:44;2.83;;;1.23;;
769;SDS011;368;48.698;9.116;2024-02-23T05:34:12;1.37;;;0.50;;
769;SDS011;368;48.698;9.116;2024-02-23T05:36:40;1.40;;;0.70;;
769;SDS011;368;48.698;9.116;2024-02-23T05:39:08;3.57;;;1.00;;
769;SDS011;368;48.698;9.116;2024-02-23T05:41:36;1.50;;;0.60;;
769;SDS011;368;48.698;9.116;2024-02-23T05:44:03;2.20;;;0.70;;
769;SDS011;368;48.698;9.116;2024-02-23T05:46:31;1.23;;;0.70;;
769;SDS011;368;48.698;9.116;2024-02-23T05:48:58;2.63;;;0.80;;
769;SDS011;368;48.698;9.116;2024-02-23T05:51:25;2.67;;;0.90;;
769;SDS011;368;48.698;9.116;2024-02-23T05:53:55;1.00;;;0.80;;
769;SDS011;368;48.698;9.116;2024-02-23T05:56:22;0.93;;;0.70;;
769;SDS011;368;48.698;9.116;2024-02-23T05:58:49;0.90;;;0.73;;
769;SDS011;368;48.698;9.116;2024-02-23T06:01:16;2.13;;;1.20;;
769;SDS011;368;48.698;9.116;2024-02-23T06:03:43;1.97;;;0.90;;
769;SDS011;368;48.698;9.116;2024-02-23T06:06:10;4.90;;;1.30;;
769;SDS011;368;48.698;9.116;2024-02-23T06:08:37;2.17;;;1.23;;
769;SDS011;368;48.698;9.116;2024-02-23T06:11:05;2.90;;;1.13;;
769;SDS011;368;48.698;9.116;2024-02-23T06:13:32;2.67;;;1.33;;
769;SDS011;368;48.698;9.116;2024-02-23T06:15:59;2.73;;;1.10;;
769;SDS011;368;48.698;9.116;2024-02-23T06:18:26;2.23;;;1.00;;
769;SDS011;368;48.698;9.116;2024-02-23T06:20:52;3.50;;;1.57;;
769;SDS011;368;48.698;9.116;2024-02-23T06:23:19;1.10;;;1.00;;
769;SDS011;368;48.698;9.116;2024-02-23T06:25:47;1.13;;;1.03;;
769;SDS011;368;48.698;9.116;2024-02-23T06:28:15;3.43;;;1.27;;
769;SDS011;368;48.698;9.116;2024-02-23T06:30:42;2.90;;;1.50;;
769;SDS011;368;48.698;9.116;2024-02-23T06:33:09;3.60;;;1.57;;
769;SDS011;368;48.698;9.116;2024-02-23T06:35:35;1.30;;;1.17;;
769;SDS011;368;48.698;9.116;2024-02-23T06:38:02;1.27;;;1.13;;
769;SDS011;368;48.698;9.116;2024-02-23T06:40:30;6.60;;;1.00;;
769;SDS011;368;48.698;9.116;2024-02-23T06:42:57;1.20;;;0.60;;
769;SDS011;368;48.698;9.116;2024-02-23T06:45:26;4.77;;;0.93;;
769;SDS011;368;48.698;9.116;2024-02-23T06:47:53;2.07;;;1.13;;
769;SDS011;368;48.698;9.116;2024-02-23T06:50:19;1.90;;;0.80;;
769;SDS011;368;48.698;9.116;2024-02-23T06:52:46;5.50;;;0.80;;
769;SDS011;368;48.698;9.116;2024-02-23T06:55:14;1.03;;;0.60;;
769;SDS011;368;48.698;9.116;2024-02-23T06:57:41;3.30;;;1.07;;
769;SDS011;368;48.698;9.116;2024-02-23T07:00:08;4.10;;;0.60;;
769;SDS011;368;48.698;9.116;2024-02-23T07:02:37;2.70;;;0.87;;
769;SDS011;368;48.698;9.116;2024-02-23T07:05:04;2.00;;;0.50;;
769;SDS011;368;48.698;9.116;2024-02-23T07:07:31;1.20;;;0.80;;
769;SDS011;368;48.698;9.116;2024-02-23T07:09:59;0.70;;;0.57;;
769;SDS011;368;48.698;9.116;2024-02-23T07:12:25;1.37;;;0.90;;
769;SDS011;368;48.698;9.116;2024-02-23T07:14:54;1.20;;;0.90;;
769;SDS011;368;48.698;9.116;2024-02-23T07:17:21;1.63;;;0.60;;
769;SDS011;368;48.698;9.116;2024-02-23T07:19:49;2.70;;;0.80;;
769;SDS011;368;48.698;9.116;2024-02-23T07:22:17;1.33;;;0.90;;
769;SDS011;368;48.698;9.116;2024-02-23T07:24:45;1.23;;;0.77;;
769;SDS011;368;48.698;9.116;2024-02-23T07:27:12;0.87;;;0.53;;
769;SDS011;368;48.698;9.116;2024-02-23T07:29:38;3.77;;;0.90;;
769;SDS011;368;48.698;9.116;2024-02-23T07:32:05;1.57;;;1.10;;
769;SDS011;368;48.698;9.116;2024-02-23T07:34:32;5.03;;;2.77;;
769;SDS011;368;48.698;9.116;2024-02-23T07:37:00;2.30;;;0.90;;
769;SDS011;368;48.698;9.116;2024-02-23T07:39:27;1.00;;;0.80;;
769;SDS011;368;48.698;9.116;2024-02-23T07:41:54;3.77;;;1.63;;
769;SDS011;368;48.698;9.116;2024-02-23T07:44:21;0.93;;;0.80;;
769;SDS011;368;48.698;9.116;2024-02-23T07:46:50;3.47;;;1.63;;
769;SDS011;368;48.698;9.116;2024-02-23T07:49:17;2.40;;;1.70;;
769;SDS011;368;48.698;9.116;2024-02-23T07:51:44;8.23;;;3.60;;
769;SDS011;368;48.698;9.116;2024-02-23T07:54:12;1.27;;;1.10;;
769;SDS011;368;48.698;9.116;2024-02-23T07:56:38;4.13;;;1.80;;
769;SDS011;368;48.698;9.116;2024-02-23T07:59:05;2.23;;;1.07;;
769;SDS011;368;48.698;9.116;2024-02-23T08:01:32;2.93;;;1.70;;
769;SDS011;368;48.698;9.116;2024-02-23T08:03:59;1.33;;;1.23;;
769;SDS011;368;48.698;9.116;2024-02-23T08:06:26;3.57;;;1.30;;
769;SDS011;368;48.698;9.116;2024-02-23T08:08:52;1.87;;;0.77;;
769;SDS011;368;48.698;9.116;2024-02-23T08:11:24;1.70;;;1.20;;
769;SDS011;368;48.698;9.116;2024-02-23T08:13:51;1.90;;;0.80;;
769;SDS011;368;48.698;9.116;2024-02-23T08:16:18;6.47;;;1.23;;
769;SDS011;368;48.698;9.116;2024-02-23T08:18:44;1.67;;;0.97;;
769;SDS011;368;48.698;9.116;2024-02-23T08:21:11;2.20;;;1.50;;
769;SDS011;368;48.698;9.116;2024-02-23T08:23:38;2.20;;;1.20;;
769;SDS011;368;48.698;9.116;2024-02-23T08:26:05;3.80;;;1.30;;
769;SDS011;368;48.698;9.116;2024-02-23T08:28:34;2.30;;;0.70;;
769;SDS011;368;48.698;9.116;2024-02-23T08:31:00;0.90;;;0.80;;
769;SDS011;368;48.698;9.116;2024-02-23T08:33:27;2.73;;;1.50;;
769;SDS011;368;48.698;9.116;2024-02-23T08:35:54;6.80;;;0.80;;
769;SDS011;368;48.698;9.116;2024-02-23T08:38:20;2.63;;;1.00;;
769;SDS011;368;48.698;9.116;2024-02-23T08:40:47;3.00;;;0.77;;
769;SDS011;368;48.698;9.116;2024-02-23T08:43:15;4.60;;;0.90;;
769;SDS011;368;48.698;9.116;2024-02-23T08:45:43;7.97;;;2.50;;
769;SDS011;368;48.698;9.116;2024-02-23T08:48:10;10.87;;;4.00;;
769;SDS011;368;48.698;9.116;2024-02-23T08:50:40;4.43;;;1.03;;
769;SDS011;368;48.698;9.116;2024-02-23T08:53:06;7.13;;;3.10;;
769;SDS011;368;48.698;9.116;2024-02-23T08:55:33;7.73;;;2.70;;
769;SDS011;368;48.698;9.116;2024-02-23T08:58:00;10.57;;;4.30;;
769;SDS011;368;48.698;9.116;2024-02-23T09:00:27;10.30;;;3.87;;
769;SDS011;368;48.698;9.116;2024-02-23T09:02:55;18.03;;;8.67;;
769;SDS011;368;48.698;9.116;2024-02-23T09:05:21;11.10;;;3.50;;
769;SDS011;368;48.698;9.116;2024-02-23T09:07:48;9.60;;;3.50;;
769;SDS011;368;48.698;9.116;2024-02-23T09:10:15;7.63;;;3.43;;
769;SDS011;368;48.698;9.116;2024-02-23T09:12:43;13.10;;;4.30;;
769;SDS011;368;48.698;9.116;2024-02-23T09:15:10;20.40;;;8.30;;
769;SDS011;368;48.698;9.116;2024-02-23T09:17:37;14.70;;;4.90;;
769;SDS011;368;48.698;9.116;2024-02-23T09:20:07;15.53;;;5.27;;
769;SDS011;368;48.698;9.116;2024-02-23T09:22:34;18.90;;;7.37;;
769;SDS011;368;48.698;9.116;2024-02-23T09:25:01;14.90;;;5.03;;
769;SDS011;368;48.698;9.116;2024-02-23T09:27:30;13.67;;;3.70;;
769;SDS011;368;48.698;9.116;2024-02-23T09:29:57;11.40;;;4.87;;
769;SDS011;368;48.698;9.116;2024-02-23T09:32:24;10.57;;;7.10;;
769;SDS011;368;48.698;9.116;2024-02-23T09:34:51;8.33;;;5.33;;
769;SDS011;368;48.698;9.116;2024-02-23T09:37:19;2.63;;;2.10;;
769;SDS011;368;48.698;9.116;2024-02-23T09:39:46;1.80;;;1.30;;
769;SDS011;368;48.698;9.116;2024-02-23T09:42:13;1.33;;;1.20;;
769;SDS011;368;48.698;9.116;2024-02-23T09:44:41;2.70;;;1.07;;
769;SDS011;368;48.698;9.116;2024-02-23T09:47:10;3.00;;;0.83;;
769;SDS011;368;48.698;9.116;2024-02-23T09:49:39;4.43;;;1.20;;
769;SDS011;368;48.698;9.116;2024-02-23T09:52:07;1.13;;;0.63;;
769;SDS011;368;48.698;9.116;2024-02-23T09:54:35;2.03;;;0.60;;
769;SDS011;368;48.698;9.116;2024-02-23T09:57:03;1.27;;;0.70;;
769;SDS011;368;48.698;9.116;2024-02-23T09:59:33;2.03;;;0.73;;
769;SDS011;368;48.698;9.116;2024-02-23T10:02:01;1.87;;;0.80;;
769;SDS011;368;48.698;9.116;2024-02-23T10:04:29;3.67;;;1.10;;
769;SDS011;368;48.698;9.116;2024-02-23T10:06:56;2.33;;;0.80;;
769;SDS011;368;48.698;9.116;2024-02-23T10:09:23;2.60;;;0.80;;
769;SDS011;368;48.698;9.116;2024-02-23T10:11:53;5.00;;;1.00;;
769;SDS011;368;48.698;9.116;2024-02-23T10:14:19;3.13;;;1.20;;
769;SDS011;368;48.698;9.116;2024-02-23T10:16:46;2.33;;;0.87;;
769;SDS011;368;48.698;9.116;2024-02-23T10:19:13;2.77;;;1.07;;
769;SDS011;368;48.698;9.116;2024-02-23T10:21:40;2.80;;;0.80;;
769;SDS011;368;48.698;9.116;2024-02-23T10:24:07;3.03;;;1.00;;
769;SDS011;368;48.698;9.116;2024-02-23T10:26:33;2.73;;;0.80;;
769;SDS011;368;48.698;9.116;2024-02-23T10:29:01;1.37;;;0.83;;
769;SDS011;368;48.698;9.116;2024-02-23T10:31:29;1.07;;;0.80;;
769;SDS011;368;48.698;9.116;2024-02-23T10:33:59;4.23;;;0.80;;
769;SDS011;368;48.698;9.116;2024-02-23T10:36:26;2.40;;;1.10;;
769;SDS011;368;48.698;9.116;2024-02-23T10:38:56;5.17;;;0.97;;
769;SDS011;368;48.698;9.116;2024-02-23T10:41:25;3.50;;;1.00;;
769;SDS011;368;48.698;9.116;2024-02-23T10:43:53;2.00;;;0.90;;
769;SDS011;368;48.698;9.116;2024-02-23T10:46:25;2.73;;;1.17;;
769;SDS011;368;48.698;9.116;2024-02-23T10:48:53;1.40;;;0.63;;
769;SDS011;368;48.698;9.116;2024-02-23T10:51:21;3.47;;;1.27;;
769;SDS011;368;48.698;9.116;2024-02-23T10:53:49;1.20;;;0.70;;
769;SDS011;368;48.698;9.116;2024-02-23T10:56:18;3.40;;;0.70;;
769;SDS011;368;48.698;9.116;2024-02-23T10:58:47;3.40;;;0.87;;
769;SDS011;368;48.698;9.116;2024-02-23T11:01:14;2.90;;;0.60;;
769;SDS011;368;48.698;9.116;2024-02-23T11:03:43;3.67;;;1.17;;
769;SDS011;368;48.698;9.116;2024-02-23T11:06:14;1.13;;;0.60;;
769;SDS011;368;48.698;9.116;2024-02-23T11:08:46;2.57;;;0.90;;
769;SDS011;368;48.698;9.116;2024-02-23T11:11:12;3.60;;;1.50;;
769;SDS011;368;48.698;9.116;2024-02-23T11:13:43;4.53;;;1.20;;
769;SDS011;368;48.698;9.116;2024-02-23T11:16:12;5.70;;;0.80;;
769;SDS011;368;48.698;9.116;2024-02-23T11:18:49;2.13;;;0.63;;
769;SDS011;368;48.698;9.116;2024-02-23T11:21:33;2.33;;;0.93;;
769;SDS011;368;48.698;9.116;2024-02-23T11:24:02;5.30;;;1.10;;
769;SDS011;368;48.698;9.116;2024-02-23T11:26:30;4.53;;;1.00;;
769;SDS011;368;48.698;9.116;2024-02-23T11:28:58;4.10;;;1.13;;
769;SDS011;368;48.698;9.116;2024-02-23T11:31:28;2.73;;;1.10;;
769;SDS011;368;48.698;9.116;2024-02-23T11:33:57;1.33;;;0.90;;
769;SDS011;368;48.698;9.116;2024-02-23T11:36:25;2.83;;;0.90;;
769;SDS011;368;48.698;9.116;2024-02-23T11:38:54;1.80;;;1.10;;
769;SDS011;368;48.698;9.116;2024-02-23T11:41:23;3.27;;;1.37;;
769;SDS011;368;48.698;9.116;2024-02-23T11:43:50;2.83;;;1.13;;
769;SDS011;368;48.698;9.116;2024-02-23T11:46:18;6.13;;;1.00;;
769;SDS011;368;48.698;9.116;2024-02-23T11:48:45;3.70;;;0.97;;
769;SDS011;368;48.698;9.116;2024-02-23T11:51:13;2.07;;;0.90;;
769;SDS011;368;48.698;9.116;2024-02-23T11:53:41;2.37;;;1.10;;
769;SDS011;368;48.698;9.116;2024-02-23T11:56:08;4.93;;;0.90;;
769;SDS011;368;48.698;9.116;2024-02-23T11:58:36;3.83;;;1.10;;
769;SDS011;368;48.698;9.116;2024-02-23T12:01:03;8.20;;;1.50;;
769;SDS011;368;48.698;9.116;2024-02-23T12:03:32;2.90;;;0.73;;
769;SDS011;368;48.698;9.116;2024-02-23T12:05:59;2.83;;;0.90;;
769;SDS011;368;48.698;9.116;2024-02-23T12:08:28;2.43;;;1.00;;
769;SDS011;368;48.698;9.116;2024-02-23T12:10:57;1.40;;;0.70;;
769;SDS011;368;48.698;9.116;2024-02-23T12:13:25;3.37;;;1.23;;
769;SDS011;368;48.698;9.116;2024-02-23T12:15:53;4.83;;;2.47;;
769;SDS011;368;48.698;9.116;2024-02-23T12:18:21;4.93;;;1.77;;
769;SDS011;368;48.698;9.116;2024-02-23T12:20:51;2.87;;;1.20;;
769;SDS011;368;48.698;9.116;2024-02-23T12:23:17;3.63;;;1.10;;
769;SDS011;368;48.698;9.116;2024-02-23T12:25:53;3.37;;;0.73;;
769;SDS011;368;48.698;9.116;2024-02-23T12:28:20;2.37;;;1.70;;
769;SDS011;368;48.698;9.116;2024-02-23T12:30:57;5.13;;;1.40;;
769;SDS011;368;48.698;9.116;2024-02-23T12:33:26;3.93;;;0.83;;
769;SDS011;368;48.698;9.116;2024-02-23T12:35:54;4.73;;;1.27;;
769;SDS011;368;48.698;9.116;2024-02-23T12:38:22;2.63;;;0.50;;
769;SDS011;368;48.698;9.116;2024-02-23T12:40:48;4.57;;;1.00;;
769;SDS011;368;48.698;9.116;2024-02-23T12:43:17;4.93;;;1.10;;
769;SDS011;368;48.698;9.116;2024-02-23T12:45:46;3.53;;;0.90;;
769;SDS011;368;48.698;9.116;2024-02-23T12:48:14;3.63;;;1.00;;
769;SDS011;368;48.698;9.116;2024-02-23T12:50:41;1.53;;;0.70;;
769;SDS011;368;48.698;9.116;2024-02-23T12:53:08;1.80;;;0.83;;
769;SDS011;368;48.698;9.116;2024-02-23T12:55:35;3.63;;;2.80;;
769;SDS011;368;48.698;9.116;2024-02-23T12:58:02;2.00;;;0.97;;
769;SDS011;368;48.698;9.116;2024-02-23T13:00:30;1.50;;;0.90;;
769;SDS011;368;48.698;9.116;2024-02-23T13:02:57;4.33;;;1.00;;
769;SDS011;368;48.698;9.116;2024-02-23T13:05:24;2.40;;;0.93;;
769;SDS011;368;48.698;9.116;2024-02-23T13:07:51;2.70;;;1.00;;
769;SDS011;368;48.698;9.116;2024-02-23T13:10:18;2.07;;;1.00;;
769;SDS011;368;48.698;9.116;2024-02-23T13:12:45;2.90;;;1.13;;
769;SDS011;368;48.698;9.116;2024-02-23T13:15:11;2.73;;;1.17;;
769;SDS011;368;48.698;9.116;2024-02-23T13:17:40;2.50;;;1.33;;
769;SDS011;368;48.698;9.116;2024-02-23T13:20:07;2.57;;;1.00;;
769;SDS011;368;48.698;9.116;2024-02-23T13:22:37;2.83;;;1.37;;
769;SDS011;368;48.698;9.116;2024-02-23T13:25:04;4.53;;;1.10;;
769;SDS011;368;48.698;9.116;2024-02-23T13:27:31;4.20;;;1.20;;
769;SDS011;368;48.698;9.116;2024-02-23T13:29:58;7.17;;;1.37;;
769;SDS011;368;48.698;9.116;2024-02-23T13:32:25;6.23;;;1.30;;
769;SDS011;368;48.698;9.116;2024-02-23T13:34:53;4.63;;;1.30;;
769;SDS011;368;48.698;9.116;2024-02-23T13:37:20;3.73;;;1.17;;
769;SDS011;368;48.698;9.116;2024-02-23T13:39:46;1.70;;;1.00;;
769;SDS011;368;48.698;9.116;2024-02-23T13:42:13;2.40;;;1.13;;
769;SDS011;368;48.698;9.116;2024-02-23T13:44:40;3.67;;;1.30;;
769;SDS011;368;48.698;9.116;2024-02-23T13:47:07;1.70;;;1.07;;
769;SDS011;368;48.698;9.116;2024-02-23T13:49:33;3.83;;;0.90;;
769;SDS011;368;48.698;9.116;2024-02-23T13:52:02;4.37;;;1.37;;
769;SDS011;368;48.698;9.116;2024-02-23T13:54:28;5.53;;;1.40;;
769;SDS011;368;48.698;9.116;2024-02-23T13:56:55;2.97;;;1.10;;
769;SDS011;368;48.698;9.116;2024-02-23T13:59:22;4.10;;;1.90;;
769;SDS011;368;48.698;9.116;2024-02-23T14:01:49;4.40;;;1.30;;
769;SDS011;368;48.698;9.116;2024-02-23T14:04:15;4.00;;;1.47;;
769;SDS011;368;48.698;9.116;2024-02-23T14:06:43;7.70;;;1.60;;
769;SDS011;368;48.698;9.116;2024-02-23T14:09:11;2.77;;;0.87;;
769;SDS011;368;48.698;9.116;2024-02-23T14:11:38;3.40;;;1.23;;
769;SDS011;368;48.698;9.116;2024-02-23T14:14:05;4.83;;;1.20;;
769;SDS011;368;48.698;9.116;2024-02-23T14:16:32;3.93;;;2.00;;
769;SDS011;368;48.698;9.116;2024-02-23T14:18:59;4.73;;;1.67;;
769;SDS011;368;48.698;9.116;2024-02-23T14:21:27;3.50;;;1.50;;
769;SDS011;368;48.698;9.116;2024-02-23T14:23:53;10.83;;;2.80;;
769;SDS011;368;48.698;9.116;2024-02-23T14:26:21;6.80;;;2.63;;
769;SDS011;368;48.698;9.116;2024-02-23T14:28:48;3.20;;;2.03;;
769;SDS011;368;48.698;9.116;2024-02-23T14:31:14;6.27;;;2.13;;
769;SDS011;368;48.698;9.116;2024-02-23T14:33:41;6.57;;;2.73;;
769;SDS011;368;48.698;9.116;2024-02-23T14:36:08;6.93;;;2.00;;
769;SDS011;368;48.698;9.116;2024-02-23T14:38:35;5.07;;;1.60;;
769;SDS011;368;48.698;9.116;2024-02-23T14:41:02;5.67;;;1.67;;
769;SDS011;368;48.698;9.116;2024-02-23T14:43:31;2.33;;;1.10;;
769;SDS011;368;48.698;9.116;2024-02-23T14:45:57;3.80;;;1.30;;
769;SDS011;368;48.698;9.116;2024-02-23T14:48:24;1.63;;;0.87;;
769;SDS011;368;48.698;9.116;2024-02-23T14:50:51;2.70;;;1.07;;
769;SDS011;368;48.698;9.116;2024-02-23T14:53:18;17.50;;;3.47;;
769;SDS011;368;48.698;9.116;2024-02-23T14:55:45;4.17;;;1.63;;
769;SDS011;368;48.698;9.116;2024-02-23T14:58:12;3.73;;;2.13;;
769;SDS011;368;48.698;9.116;2024-02-23T15:00:40;5.80;;;1.47;;
769;SDS011;368;48.698;9.116;2024-02-23T15:03:07;2.37;;;1.40;;
769;SDS011;368;48.698;9.116;2024-02-23T15:05:34;3.03;;;1.60;;
769;SDS011;368;48.698;9.116;2024-02-23T15:08:01;2.20;;;1.57;;
769;SDS011;368;48.698;9.116;2024-02-23T15:10:28;2.83;;;1.10;;
769;SDS011;368;48.698;9.116;2024-02-23T15:12:55;2.03;;;1.40;;
769;SDS011;368;48.698;9.116;2024-02-23T15:15:22;3.77;;;1.70;;
769;SDS011;368;48.698;9.116;2024-02-23T15:17:50;2.83;;;1.50;;
769;SDS011;368;48.698;9.116;2024-02-23T15:20:18;3.83;;;1.50;;
769;SDS011;368;48.698;9.116;2024-02-23T15:22:44;6.90;;;2.47;;
769;SDS011;368;48.698;9.116;2024-02-23T15:25:14;4.50;;;3.37;;
769;SDS011;368;48.698;9.116;2024-02-23T15:27:41;7.73;;;2.33;;
769;SDS011;368;48.698;9.116;2024-02-23T15:30:08;6.80;;;3.20;;
769;SDS011;368;48.698;9.116;2024-02-23T15:32:35;6.57;;;2.67;;
769;SDS011;368;48.698;9.116;2024-02-23T15:35:04;7.60;;;3.00;;
769;SDS011;368;48.698;9.116;2024-02-23T15:37:32;6.27;;;2.90;;
769;SDS011;368;48.698;9.116;2024-02-23T15:39:59;4.60;;;1.90;;
769;SDS011;368;48.698;9.116;2024-02-23T15:42:26;2.83;;;1.70;;
769;SDS011;368;48.698;9.116;2024-02-23T15:44:52;5.80;;;2.30;;